O Viking 1 Mondeville (14) - Orange L

Date : 01/05/2026
Couleur : Orange
Distance : 4,250 km
Valeur du circuit : 6779595 point × seconde

Place Nom Licence Catégorie Club Temps min/km CN à J-15 Valeur Points Différence Nouveau CN
1 PECOURT Noé 27694 H20 2904BR 0:16:50 3'57 6412 6476120 6712 +300 6540
2 PIGEON Thomas 20148 H21 1408NM 0:18:41 4'23 6048
3 MALEUVRE Corentin 39853 H21 7604NM 0:18:57 4'27 5833 6632121 5963 +130 5876
4 MOTTET Martin 20734 H40 3502BR 0:19:05 4'29 6125 7013125 5921 -204 6135
5 POUVREAU Mathieu 33568 H21 7205PL 0:19:16 4'32 5865
6 VAUCEL Noé 40536 H18 7205PL 0:20:10 4'44 4788 5793480 5603 +815 4852
7 FRANCOIS Maël 40112 H18 1408NM 0:20:23 4'47 4709 5759107 5543 +834 4901
8 DEZORME Léo 37926 H18 2904BR 0:20:35 4'50 4691 5793385 5490 +799 5047
9 DAGUET Tim 41546 H18 1408NM 0:20:36 4'50 5357 6621252 5485 +128 5422
10 LUCIANI Sébastien 43570 H21 9109IF 0:21:20 5'01 5362 6863360 5297 -65 5346
11 MILEO Julien 24999 H45 7605NM 0:21:21 5'01 5448 6978888 5292 -156 5426
12 MAVET Jules 33270 H18 0207HF 0:21:25 5'02 5041 6477685 5276 +235 5075
13 GONNET Audrey 32220 D35 7807IF 0:21:33 5'04 4827 6241311 5243 +416 4949
14 CALANDOT François 2924 H45 1403NM 0:21:37 5'05 5660 7341020 5227 -433 5660
15 LEMONNIER Nicolas 24553 H45 1408NM 0:22:09 5'12 5101 5101
16 LONG Guillaume 43043 H45 1408NM 0:22:25 5'16 4694 6313430 5041 +347 4796
17 PARISOT Ethan 40389 H18 0207HF 0:22:31 5'17 4978 6725278 5018 +40 5013
18 JAEGLER Hugo 31599 H35 9109IF 0:22:50 5'22 4949 4949
19 GRAFFIN Denis 29064 H55 2904BR 0:22:52 5'22 4574 6275528 4941 +367 4663
20 DAEM Adriaan 19344 H50 7807IF 0:23:01 5'24 5231 7224011 4909 -322 5005
21 MARTINEZ Mathieu 36814 H40 0207HF 0:23:10 5'27 5104 7094560 4877 -227 5104
22 DUMESNIL Rodolphe 40593 H45 9109IF 0:23:15 5'28 5028 7014060 4860 -168 4972
23 DUMESNIL Naël 38525 H18 9109IF 0:23:16 5'28 3823 5336908 4856 +1033 4340
24 DUDOUT Serge 24515 H50 7605NM 0:23:19 5'29 4834 6762766 4846 +12 4843
25 RUAMPS Thibaut 44574 H40 1408NM 0:23:24 5'30 5324 7474896 4829 -495 5077
26 BEYSSEN Denis 43765 H45 5909HF 0:23:40 5'34 5559 7893780 4774 -785 5554
27 KERANGUEVEN Aubin 23007 H21 3502BR 0:24:45 5'49 4726 7018110 4565 -161 4732
28 MULLOIS Antonin 47429 H21 7205PL 0:24:45 5'49 4354 6465690 4565 +211 4460
29 VILLEDIEU Nicolas 20796 H50 1403NM 0:25:01 5'53 5006 7514006 4517 -489 5006
30 HOFFMANN Camille 41427 H40 3502BR 0:25:07 5'54 4694 7073858 4499 -195 4601
31 POULAIN Nicolas 13950 H50 7605NM 0:25:34 6'00 4915 7539610 4420 -495 4915
32 RICHARD Yann 19890 H55 7205PL 0:26:00 6'07 4499 7018440 4346 -153 4506
33 MENESGUEN Clémence 44453 D21 7604NM 0:26:11 6'09 4243 6665753 4315 +72 4267
34 VILLEDIEU Manon 34349 D20 1403NM 0:27:05 6'22 4196 6818500 4172 -24 4253
35 TAELEMANS Philippe 13278 H60 5907HF 0:27:28 6'27 4334 7142432 4114 -220 4248
36 POLASKOVA-MENARD Héléna 36653 D50 4403PL 0:27:35 6'29 3847 6366785 4096 +249 3847
37 EUDIER Patrick 3384 H70 7605NM 0:27:43 6'31 4002 6655326 4077 +75 4055
38 PROFICHET Vincent 44575 H65 1408NM 0:27:54 6'33 4266 7141284 4050 -216 4214
39 BOURMAULT Vincent 33414 H50 7205PL 0:27:57 6'34 3957 6635889 4043 +86 3979
40 BOLLE Nathalie 46958 D45 2801CE 0:28:00 6'35 3721 6251280 4035 +314 3773
41 VOLANT Stéphane 25229 H55 2904BR 0:28:03 6'36 4028 4028
42 ANGLADE Christian 20935 H55 5604BR 0:28:19 6'39 4038 6860562 3990 -48 3989
43 DURAND Noé 44150 H14 4403PL 0:28:31 6'42 3922 6710542 3962 +40 3985
44 CHAPUT Christophe 18869 H55 1406NM 0:28:31 6'42 3747 6411117 3962 +215 3864
45 GUYON Raphaël 46591 H18 1403NM 0:28:32 6'42 4244 7265728 3960 -284 4016
46 CARTON Sébastien 41499 H45 0207HF 0:29:02 6'49 4499 7837258 3892 -607 4411
47 DURAND Jérôme 44148 H45 4403PL 0:29:24 6'55 4107 7244748 3843 -264 4069
48 CALANDOT Emilie 30145 D40 1403NM 0:29:25 6'55 3677 3841 +164 3689
49 OLIGO Virginie 9192 D60 5609BR 0:29:41 6'59 3922 3807 -115 3934
50 POEDRAS Daniel 10669 H65 5609BR 0:29:52 7'01 3624 3783 +159 3651
51 DUDOUT Malaurine 24516 D21 7605NM 0:30:01 7'03 3900 3764 -136 3860
52 MAHEO Soizic 46186 D45 5302PL 0:30:27 7'09 3711 3711
53 PARISOT Marc 40387 H50 0207HF 0:30:32 7'11 4054 3701 -353 3998
54 DURRMANN Jean 18091 H60 2208BR 0:30:35 7'11 3670 3695 +25 3745
55 HELLOUIN DE MENIBUS Benjamin 47343 H35 9109IF 0:30:40 7'12 3685
56 BREARD Lolita 49967 D21 1408NM 0:30:48 7'14 3669
57 SPIRAL Thierry 6118 H55 2605AR 0:31:04 7'18 3683 3637 -46 3645
58 GUYON Vincent 47713 H45 1403NM 0:31:30 7'24 3587
59 MENARD Naori 39428 H18 4403PL 0:31:30 7'24 3609 3587 -22 3609
60 SAGOT Eric 46979 H60 9109IF 0:32:07 7'33 3518 3660
61 BEAUVISAGE Bruno 28536 H60 7604NM 0:32:39 7'40 3461 3461
62 MILLOUR Océane 49707 D35 5302PL 0:32:53 7'44 3436
63 BAILLET Arnaud 15733 H40 6013HF 0:33:14 7'49 3327 3400 +73 3355
64 CROUSSE Anne 31468 D55 9109IF 0:33:56 7'59 2852 3330 +478 3091
65 BAILLET Laëtitia 20995 D40 6013HF 0:34:08 8'01 3085 3310 +225 3122
66 MICHELET Céline 38938 D45 4504CE 0:34:45 8'10 3266 3252 -14 3335
67 COFFE Daniel 20554 H60 9502IF 0:35:23 8'19 3383 3193 -190 3330
68 FLOQUET Patrick 16190 H60 7709IF 0:35:36 8'22 3174 3174
69 NGUYEN Jeanne 48947 D35 9109IF 0:35:39 8'23 3170 3170
70 VANDEWOUDE Léa 48982 D21 1403NM 0:37:14 8'45 3035
71 MAVET Benoit 35983 H40 0207HF 0:38:42 9'06 2993 2920 -73 2968
72 COFFE Marie-Pierre 20358 D60 9502IF 0:39:32 9'18 2921 2858 -63 2901
73 PEETERS Elisabeth 293 D55 7512IF 0:39:38 9'19 3033 2851 -182 3033
74 LIMHOEUR Vesna 38937 H50 4504CE 0:40:02 9'25 3484 2822 -662 3404
75 BOURGEOIS Vincent 37981 H55 7512IF 0:40:30 9'31 3095 2790 -305 3095
76 GUITTARD Alexandra 46978 D45 9109IF 0:40:32 9'32 2788 2788
77 VALEYRE Sarah 22660 D50 1403NM 0:44:04 10'22 2532 2564 +32 2532
78 BRETON Yohann 49875 H45 5302PL 0:51:29 12'06 2195
79 BELAUD Philippe 3643 H55 7512IF 0:54:04 12'43 2173 2090 -83 2148
CHAPUT Titouan 38128 H21 1408NM pm None 6164 0 6096
CALBO Frédéric 28424 H50 7205PL pm None 4817 0 4777
LEPETIT Michel 571 H75 1403NM pm None 3422 0 3422